createdAt,value
2022-10-15T00:00:51.002Z,102137.72
2022-10-15T00:03:17.783Z,102121.59
2022-10-15T00:05:44.636Z,102101.19
2022-10-15T00:08:12.046Z,102073.78
2022-10-15T00:10:38.874Z,102052.47
2022-10-15T00:13:06.224Z,102020.72
2022-10-15T00:15:33.398Z,102008.47
2022-10-15T00:18:00.124Z,101989.75
2022-10-15T00:20:26.943Z,101978.16
2022-10-15T00:22:53.689Z,101951.91
2022-10-15T00:25:20.429Z,101931.56
2022-10-15T00:27:47.192Z,101918.34
2022-10-15T00:30:14.110Z,101908.56
2022-10-15T00:32:40.821Z,101899.66
2022-10-15T00:35:08.149Z,101874.16
2022-10-15T00:37:34.938Z,101871.31
2022-10-15T00:42:31.065Z,101843.84
2022-10-15T00:44:59.933Z,101829.81
2022-10-15T00:47:33.996Z,101814.19
2022-10-15T00:50:12.771Z,101802.88
2022-10-15T00:53:01.312Z,101804.59
2022-10-15T00:55:34.050Z,101794.19
2022-10-15T00:58:05.765Z,101789.88
2022-10-15T01:00:33.391Z,101789.84
2022-10-15T01:03:00.488Z,101789.03
2022-10-15T01:05:27.496Z,101777.75
2022-10-15T01:07:54.204Z,101783.19
2022-10-15T01:10:22.287Z,101780.00
2022-10-15T01:13:02.568Z,101797.41
2022-10-15T01:15:49.763Z,101796.56
2022-10-15T01:18:22.539Z,101792.31
2022-10-15T01:20:49.266Z,101795.81
2022-10-15T01:23:34.764Z,101798.47
2022-10-15T01:26:29.485Z,101795.03
2022-10-15T01:29:14.269Z,101796.19
2022-10-15T01:31:44.347Z,101804.94
2022-10-15T01:34:29.034Z,101798.75
2022-10-15T01:37:20.109Z,101806.72
2022-10-15T01:40:22.529Z,101801.66
2022-10-15T01:43:02.446Z,101813.34
2022-10-15T01:46:10.558Z,101821.28
2022-10-15T01:48:49.680Z,101826.75
2022-10-15T01:51:20.872Z,101825.97
2022-10-15T01:53:50.600Z,101837.41
2022-10-15T01:56:23.938Z,101841.03
2022-10-15T01:58:54.528Z,101840.28
2022-10-15T02:01:22.253Z,101852.63
2022-10-15T02:03:53.321Z,101865.75
2022-10-15T02:06:25.821Z,101865.84
2022-10-15T02:09:24.419Z,101872.84
2022-10-15T02:12:11.516Z,101891.22
2022-10-15T02:14:51.797Z,101882.59
2022-10-15T02:17:27.221Z,101898.44
2022-10-15T02:20:01.309Z,101910.81
2022-10-15T02:22:35.396Z,101914.34
2022-10-15T02:25:11.046Z,101927.44
2022-10-15T02:27:40.870Z,101933.75
2022-10-15T02:30:09.297Z,101948.53
2022-10-15T02:32:40.091Z,101959.03
2022-10-15T02:35:10.455Z,101964.34
2022-10-15T02:37:46.236Z,101964.44
2022-10-15T02:40:16.381Z,101971.34
2022-10-15T02:42:43.163Z,101970.56
2022-10-15T02:45:11.537Z,101976.84
2022-10-15T02:47:39.919Z,101986.31
2022-10-15T02:50:06.936Z,101988.97
2022-10-15T02:52:34.126Z,102000.34
2022-10-15T02:55:00.878Z,102008.19
2022-10-15T02:57:27.692Z,102007.31
2022-10-15T02:59:54.609Z,102001.28
2022-10-15T03:02:21.933Z,102003.75
2022-10-15T03:04:48.752Z,101995.94
2022-10-15T03:07:15.556Z,101987.91
2022-10-15T03:09:42.717Z,101986.66
2022-10-15T03:12:09.524Z,101986.34
2022-10-15T03:14:36.763Z,101968.66
2022-10-15T03:17:03.775Z,101946.78
2022-10-15T03:19:30.548Z,101930.13
2022-10-15T03:21:57.367Z,101925.47
2022-10-15T03:24:25.157Z,101900.56
2022-10-15T03:26:52.851Z,101876.00
2022-10-15T03:29:20.197Z,101867.66
2022-10-15T03:31:55.147Z,101844.88
2022-10-15T03:34:21.994Z,101832.56
2022-10-15T03:36:49.004Z,101796.78
2022-10-15T03:39:16.115Z,101771.34
2022-10-15T03:44:22.183Z,101733.41
2022-10-15T03:46:59.577Z,101732.50
2022-10-15T03:49:33.380Z,101720.22
2022-10-15T03:52:02.253Z,101714.06
2022-10-15T03:54:29.667Z,101699.22
2022-10-15T03:56:56.795Z,101690.19
2022-10-15T03:59:29.601Z,101685.03
2022-10-15T04:01:59.421Z,101684.09
2022-10-15T04:04:26.901Z,101682.56
2022-10-15T04:06:53.650Z,101683.44
2022-10-15T04:09:20.429Z,101681.06
2022-10-15T04:11:47.240Z,101688.09
2022-10-15T04:14:14.368Z,101693.09
2022-10-15T04:16:41.881Z,101687.22
2022-10-15T04:19:14.341Z,101694.31
2022-10-15T04:21:42.163Z,101706.81
2022-10-15T04:24:17.548Z,101709.31
2022-10-15T04:26:44.933Z,101720.66
2022-10-15T04:29:12.150Z,101721.78
2022-10-15T04:31:39.021Z,101723.81
2022-10-15T04:34:06.104Z,101728.25
2022-10-15T04:36:32.919Z,101741.38
2022-10-15T04:39:08.560Z,101748.41
2022-10-15T04:41:41.130Z,101763.44
2022-10-15T04:44:13.996Z,101766.22
2022-10-15T04:46:45.572Z,101774.00
2022-10-15T04:49:47.714Z,101782.69
2022-10-15T04:52:34.656Z,101788.16
2022-10-15T04:55:06.938Z,101803.94
2022-10-15T04:57:33.729Z,101807.50
2022-10-15T05:00:00.552Z,101812.72
2022-10-15T05:02:30.355Z,101812.84
2022-10-15T05:05:10.348Z,101818.97
2022-10-15T05:07:47.078Z,101825.84
2022-10-15T05:10:15.226Z,101827.69
2022-10-15T05:15:13.998Z,101840.88
2022-10-15T05:17:40.967Z,101847.69
2022-10-15T05:20:09.319Z,101845.13
2022-10-15T05:22:36.195Z,101846.22
2022-10-15T05:25:03.686Z,101851.50
2022-10-15T05:27:36.351Z,101861.25
2022-10-15T05:30:05.133Z,101870.19
2022-10-15T05:32:37.764Z,101880.53
2022-10-15T05:35:05.001Z,101881.38
2022-10-15T05:37:51.591Z,101879.75
2022-10-15T05:40:21.235Z,101888.53
2022-10-15T05:43:02.214Z,101885.84
2022-10-15T05:45:28.938Z,101892.13
2022-10-15T05:48:01.468Z,101891.44
2022-10-15T05:50:28.215Z,101902.03
2022-10-15T05:52:56.738Z,101909.84
2022-10-15T05:55:46.335Z,101919.59
2022-10-15T05:58:13.049Z,101920.63
2022-10-15T06:00:39.832Z,101933.84
2022-10-15T06:03:06.549Z,101937.53
2022-10-15T06:05:33.442Z,101953.06
2022-10-15T06:08:00.204Z,101954.88
2022-10-15T06:10:28.470Z,101966.19
2022-10-15T06:12:55.563Z,101970.50
2022-10-15T06:15:22.601Z,101973.94
2022-10-15T06:17:53.511Z,101971.34
2022-10-15T06:20:20.299Z,101974.03
2022-10-15T06:22:47.083Z,101964.41
2022-10-15T06:25:13.990Z,101970.34
2022-10-15T06:27:40.707Z,101963.50
2022-10-15T06:30:08.538Z,101965.19
2022-10-15T06:32:35.433Z,101976.34
2022-10-15T06:35:02.367Z,101982.16
2022-10-15T06:37:29.979Z,101976.44
2022-10-15T06:39:58.615Z,101972.34
2022-10-15T06:42:25.424Z,101936.97
2022-10-15T06:44:55.207Z,101924.38
2022-10-15T06:47:22.257Z,101902.06
2022-10-15T06:49:50.154Z,101867.75
2022-10-15T06:52:17.135Z,101844.88
2022-10-15T06:54:43.936Z,101822.00
2022-10-15T06:57:10.952Z,101804.47
2022-10-15T06:59:41.176Z,101786.81
2022-10-15T07:02:10.229Z,101753.00
2022-10-15T07:04:37.053Z,101735.31
2022-10-15T07:07:03.842Z,101722.31
2022-10-15T07:09:31.155Z,101706.22
2022-10-15T07:11:58.340Z,101692.44
2022-10-15T07:14:25.093Z,101677.63
2022-10-15T07:16:51.902Z,101673.28
2022-10-15T07:19:20.382Z,101674.00
2022-10-15T07:21:49.142Z,101664.06
2022-10-15T07:24:15.958Z,101661.25
2022-10-15T07:26:42.752Z,101656.88
2022-10-15T07:29:09.465Z,101643.84
2022-10-15T07:31:36.327Z,101636.72
2022-10-15T07:34:03.433Z,101636.72
2022-10-15T07:36:30.166Z,101633.34
2022-10-15T07:38:57.145Z,101638.53
2022-10-15T07:41:23.961Z,101627.91
2022-10-15T07:43:53.690Z,101632.94
2022-10-15T07:46:20.444Z,101620.75
2022-10-15T07:48:53.980Z,101614.38
2022-10-15T07:51:20.837Z,101621.56
2022-10-15T07:53:47.704Z,101614.31
2022-10-15T07:56:15.837Z,101615.91
2022-10-15T07:58:43.264Z,101608.78
2022-10-15T08:01:11.409Z,101616.03
2022-10-15T08:03:38.332Z,101608.34
2022-10-15T08:06:07.943Z,101594.59
2022-10-15T08:08:35.867Z,101573.25
2022-10-15T08:11:08.035Z,101563.28
2022-10-15T08:13:35.050Z,101562.16
2022-10-15T08:16:01.858Z,101546.56
2022-10-15T08:18:28.689Z,101559.78
2022-10-15T08:20:58.992Z,101548.63
2022-10-15T08:23:25.725Z,101508.75
2022-10-15T08:25:52.548Z,101414.03
2022-10-15T08:28:19.452Z,101329.88
2022-10-15T08:30:46.210Z,101269.44
2022-10-15T08:33:12.997Z,101234.31
2022-10-15T08:35:43.949Z,101226.41
2022-10-15T08:38:14.784Z,101191.00
2022-10-15T08:40:53.756Z,101154.56
2022-10-15T08:43:26.469Z,101103.28
2022-10-15T08:45:57.857Z,101040.16
2022-10-15T08:48:41.037Z,100998.44
2022-10-15T08:51:16.015Z,100935.84
2022-10-15T08:53:49.483Z,100921.22
2022-10-15T08:56:22.077Z,100906.59
2022-10-15T08:59:09.731Z,100900.53
2022-10-15T09:02:03.140Z,100906.88
2022-10-15T09:05:17.558Z,100914.09
2022-10-15T09:07:56.844Z,100932.13
2022-10-15T09:10:50.197Z,100944.88
2022-10-15T09:13:33.703Z,100955.03
2022-10-15T09:16:23.855Z,100967.44
2022-10-15T09:18:55.217Z,100985.38
2022-10-15T09:21:25.874Z,100999.31
2022-10-15T09:23:56.707Z,100994.84
2022-10-15T09:26:32.819Z,100989.25
2022-10-15T09:29:13.979Z,100967.78
2022-10-15T09:31:50.679Z,100944.00
2022-10-15T09:34:43.181Z,100934.06
2022-10-15T09:37:27.995Z,100942.09
2022-10-15T09:40:22.866Z,100939.19
2022-10-15T09:42:52.726Z,100923.38
2022-10-15T09:45:19.928Z,100918.78
2022-10-15T09:47:46.872Z,100913.91
2022-10-15T09:50:14.736Z,100894.56
2022-10-15T09:53:03.126Z,100869.53
2022-10-15T09:55:44.998Z,100858.22
2022-10-15T09:58:18.535Z,100851.56
2022-10-15T10:00:52.761Z,100858.78
2022-10-15T10:03:19.731Z,100863.03
2022-10-15T10:05:46.505Z,100881.22
2022-10-15T10:08:16.183Z,100898.44
2022-10-15T10:10:46.025Z,100913.50
2022-10-15T10:13:24.803Z,100924.88
2022-10-15T10:15:58.317Z,100934.00
2022-10-15T10:18:26.519Z,100945.19
2022-10-15T10:21:01.491Z,100954.72
2022-10-15T10:23:39.544Z,100976.97
2022-10-15T10:26:10.219Z,100984.78
2022-10-15T10:28:49.172Z,101000.72
2022-10-15T10:31:16.052Z,101011.88
2022-10-15T10:33:47.716Z,101018.41
2022-10-15T10:36:28.490Z,101038.81
2022-10-15T10:39:13.265Z,101046.69
2022-10-15T10:41:55.027Z,101052.50
2022-10-15T10:44:28.555Z,101059.41
2022-10-15T10:47:07.108Z,101068.63
2022-10-15T10:49:37.626Z,101067.53
2022-10-15T10:52:20.069Z,101060.28
2022-10-15T10:54:49.194Z,101041.91
2022-10-15T10:57:23.684Z,101015.19
2022-10-15T10:59:53.830Z,100986.59
2022-10-15T11:02:20.726Z,100969.75
2022-10-15T11:04:47.757Z,100964.88
2022-10-15T11:07:14.431Z,100947.63
2022-10-15T11:09:53.721Z,100937.44
2022-10-15T11:12:32.086Z,100913.06
2022-10-15T11:15:08.817Z,100901.84
2022-10-15T11:18:03.512Z,100884.66
2022-10-15T11:20:57.116Z,100869.69
2022-10-15T11:23:44.924Z,100866.63
2022-10-15T11:26:46.019Z,100861.34
2022-10-15T11:29:23.769Z,100852.88
2022-10-15T11:32:42.040Z,100849.84
2022-10-15T11:35:52.005Z,100867.50
2022-10-15T11:38:47.414Z,100863.00
2022-10-15T11:41:23.374Z,100864.94
2022-10-15T11:43:58.469Z,100866.97
2022-10-15T11:46:28.576Z,100847.88
2022-10-15T11:49:27.583Z,100837.63
2022-10-15T11:52:05.079Z,100796.78
2022-10-15T11:54:39.133Z,100786.94
2022-10-15T11:57:15.374Z,100780.56
2022-10-15T11:59:56.052Z,100766.94
2022-10-15T12:02:43.377Z,100780.72
2022-10-15T12:05:19.753Z,100776.53
2022-10-15T12:07:48.815Z,100782.13
2022-10-15T12:10:35.469Z,100783.81
2022-10-15T12:13:27.169Z,100774.84
2022-10-15T12:16:23.083Z,100779.53
2022-10-15T12:18:57.361Z,100765.66
2022-10-15T12:21:44.461Z,100765.88
2022-10-15T12:24:44.672Z,100766.94
2022-10-15T12:27:20.578Z,100754.59
2022-10-15T12:30:02.762Z,100758.41
2022-10-15T12:32:36.714Z,100750.81
2022-10-15T12:35:18.036Z,100756.94
2022-10-15T12:37:48.016Z,100751.69
2022-10-15T12:40:23.826Z,100763.38
2022-10-15T12:42:59.568Z,100759.50
2022-10-15T12:45:40.293Z,100772.78
2022-10-15T12:48:21.152Z,100776.34
2022-10-15T12:50:48.116Z,100782.06
2022-10-15T12:53:28.733Z,100781.72
2022-10-15T12:56:35.699Z,100771.41
2022-10-15T12:59:02.474Z,100775.53
2022-10-15T13:01:51.161Z,100763.97
2022-10-15T13:04:18.854Z,100765.88
2022-10-15T13:06:46.804Z,100767.38
2022-10-15T13:09:14.131Z,100756.09
2022-10-15T13:11:47.492Z,100764.59
2022-10-15T13:14:31.904Z,100763.38
2022-10-15T13:17:03.644Z,100764.19
2022-10-15T13:19:34.779Z,100800.16
2022-10-15T13:22:04.343Z,100820.06
2022-10-15T13:24:40.855Z,100837.88
2022-10-15T13:27:22.712Z,100860.00
2022-10-15T13:30:05.731Z,100874.28
2022-10-15T13:32:38.949Z,100894.44
2022-10-15T13:35:17.921Z,100913.78
2022-10-15T13:37:46.904Z,100929.06
2022-10-15T13:40:32.771Z,100964.00
2022-10-15T13:43:02.594Z,100993.31
2022-10-15T13:45:30.169Z,101012.19
2022-10-15T13:47:57.432Z,101038.72
2022-10-15T13:50:30.617Z,101055.16
2022-10-15T13:52:59.617Z,101072.31
2022-10-15T13:55:36.482Z,101081.22
2022-10-15T13:58:27.465Z,101086.03
2022-10-15T14:01:08.021Z,101085.25
2022-10-15T14:03:37.235Z,101089.09
2022-10-15T14:06:21.485Z,101081.69
2022-10-15T14:08:50.436Z,101091.47
2022-10-15T14:11:18.774Z,101093.97
2022-10-15T14:13:47.886Z,101102.69
2022-10-15T14:16:18.112Z,101098.28
2022-10-15T14:18:51.747Z,101122.78
2022-10-15T14:21:22.273Z,101136.84
2022-10-15T14:23:50.005Z,101155.38
2022-10-15T14:26:24.653Z,101168.94
2022-10-15T14:28:52.657Z,101179.44
2022-10-15T14:31:37.038Z,101211.66
2022-10-15T14:34:30.796Z,101227.38
2022-10-15T14:36:57.681Z,101253.47
2022-10-15T14:39:32.832Z,101267.59
2022-10-15T14:42:02.972Z,101281.63
2022-10-15T14:44:42.013Z,101294.16
2022-10-15T14:47:30.625Z,101317.78
2022-10-15T14:50:00.933Z,101327.22
2022-10-15T14:52:30.534Z,101328.88
2022-10-15T14:54:59.976Z,101355.94
2022-10-15T14:57:32.171Z,101360.38
2022-10-15T15:00:00.453Z,101373.63
2022-10-15T15:02:28.953Z,101391.91
2022-10-15T15:05:17.126Z,101407.19
2022-10-15T15:07:44.076Z,101419.84
2022-10-15T15:10:11.466Z,101422.50
2022-10-15T15:12:39.381Z,101437.75
2022-10-15T15:15:16.329Z,101443.13
2022-10-15T15:17:43.444Z,101467.91
2022-10-15T15:20:10.873Z,101483.91
2022-10-15T15:22:38.419Z,101502.44
2022-10-15T15:25:27.131Z,101522.84
2022-10-15T15:27:53.930Z,101535.47
2022-10-15T15:30:23.734Z,101549.78
2022-10-15T15:32:51.090Z,101574.25
2022-10-15T15:35:33.840Z,101582.81
2022-10-15T15:38:00.632Z,101582.50
2022-10-15T15:40:27.430Z,101582.84
2022-10-15T15:42:55.953Z,101584.75
2022-10-15T15:45:25.253Z,101595.72
2022-10-15T15:47:52.514Z,101590.94
2022-10-15T15:50:21.516Z,101597.34
2022-10-15T15:52:48.498Z,101623.81
2022-10-15T15:55:15.670Z,101635.91
2022-10-15T15:57:42.525Z,101646.56
2022-10-15T16:00:10.582Z,101662.56
2022-10-15T16:02:38.365Z,101671.56
2022-10-15T16:05:07.124Z,101686.22
2022-10-15T16:07:34.914Z,101708.00
2022-10-15T16:10:03.678Z,101718.81
2022-10-15T16:12:30.466Z,101732.00
2022-10-15T16:17:25.397Z,101748.88
2022-10-15T16:19:52.278Z,101759.56
2022-10-15T16:22:19.182Z,101762.44
2022-10-15T16:24:45.930Z,101770.31
2022-10-15T16:27:12.809Z,101792.88
2022-10-15T16:29:39.623Z,101789.09
2022-10-15T16:32:06.448Z,101778.78
2022-10-15T16:34:33.364Z,101781.28
2022-10-15T16:37:00.192Z,101762.13
2022-10-15T16:39:26.919Z,101755.44
2022-10-15T16:41:53.637Z,101750.16
2022-10-15T16:44:20.877Z,101742.09
2022-10-15T16:46:47.821Z,101743.00
2022-10-15T16:49:14.552Z,101743.22
2022-10-15T16:51:43.669Z,101737.19
2022-10-15T16:54:13.813Z,101723.44
2022-10-15T16:56:40.639Z,101715.13
2022-10-15T16:59:07.424Z,101718.69
2022-10-15T17:01:34.258Z,101714.31
2022-10-15T17:04:01.107Z,101712.63
2022-10-15T17:06:29.913Z,101717.19
2022-10-15T17:08:59.352Z,101711.19
2022-10-15T17:11:29.768Z,101712.34
2022-10-15T17:13:58.940Z,101710.91
2022-10-15T17:16:32.051Z,101716.28
2022-10-15T17:18:59.430Z,101715.44
2022-10-15T17:21:28.542Z,101710.41
2022-10-15T17:23:57.612Z,101717.56
2022-10-15T17:26:33.395Z,101728.19
2022-10-15T17:29:00.907Z,101726.34
2022-10-15T17:31:28.126Z,101733.47
2022-10-15T17:34:01.434Z,101750.38
2022-10-15T17:36:31.620Z,101738.34
2022-10-15T17:38:59.663Z,101744.91
2022-10-15T17:41:29.089Z,101764.38
2022-10-15T17:43:56.349Z,101780.28
2022-10-15T17:46:25.758Z,101795.44
2022-10-15T17:48:53.963Z,101810.44
2022-10-15T17:51:27.227Z,101830.53
2022-10-15T17:53:57.829Z,101843.66
2022-10-15T17:56:27.463Z,101843.81
2022-10-15T17:58:57.479Z,101865.22
2022-10-15T18:01:33.738Z,101876.03
2022-10-15T18:04:12.992Z,101898.09
2022-10-15T18:06:44.754Z,101903.56
2022-10-15T18:09:21.682Z,101912.41
2022-10-15T18:11:49.093Z,101914.13
2022-10-15T18:14:16.060Z,101921.38
2022-10-15T18:16:43.368Z,101923.13
2022-10-15T18:19:10.615Z,101921.66
2022-10-15T18:21:37.443Z,101921.72
2022-10-15T18:24:04.319Z,101913.91
2022-10-15T18:26:32.192Z,101913.16
2022-10-15T18:28:59.103Z,101904.56
2022-10-15T18:31:26.353Z,101904.69
2022-10-15T18:33:55.873Z,101905.66
2022-10-15T18:36:28.027Z,101917.16
2022-10-15T18:38:55.753Z,101911.06
2022-10-15T18:41:28.496Z,101901.44
2022-10-15T18:44:01.513Z,101897.13
2022-10-15T18:46:33.956Z,101899.84
2022-10-15T18:49:01.545Z,101904.31
2022-10-15T18:51:30.403Z,101898.16
2022-10-15T18:53:58.705Z,101896.25
2022-10-15T18:56:25.546Z,101881.41
2022-10-15T18:58:55.205Z,101882.31
2022-10-15T19:01:35.643Z,101866.59
2022-10-15T19:04:09.062Z,101850.78
2022-10-15T19:06:39.005Z,101841.13
2022-10-15T19:09:08.142Z,101832.41
2022-10-15T19:11:35.775Z,101821.63
2022-10-15T19:14:04.139Z,101811.09
2022-10-15T19:16:31.412Z,101795.38
2022-10-15T19:19:04.871Z,101788.97
2022-10-15T19:21:32.361Z,101760.84
2022-10-15T19:23:59.525Z,101745.25
2022-10-15T19:26:27.751Z,101734.00
2022-10-15T19:28:56.788Z,101716.72
2022-10-15T19:31:35.949Z,101702.75
2022-10-15T19:34:03.413Z,101701.09
2022-10-15T19:36:35.023Z,101701.81
2022-10-15T19:39:08.523Z,101702.69
2022-10-15T19:41:40.094Z,101698.97
2022-10-15T19:44:08.256Z,101703.94
2022-10-15T19:46:36.031Z,101683.63
2022-10-15T19:49:04.059Z,101671.41
2022-10-15T19:51:31.629Z,101657.56
2022-10-15T19:54:00.060Z,101652.44
2022-10-15T19:56:31.631Z,101646.00
2022-10-15T19:59:00.730Z,101641.94
2022-10-15T20:01:28.749Z,101646.25
2022-10-15T20:04:01.609Z,101648.88
2022-10-15T20:06:31.984Z,101653.63
2022-10-15T20:08:58.851Z,101653.78
2022-10-15T20:11:25.586Z,101657.44
2022-10-15T20:13:52.584Z,101669.56
2022-10-15T20:16:22.313Z,101677.34
2022-10-15T20:18:50.194Z,101685.94
2022-10-15T20:21:17.481Z,101697.00
2022-10-15T20:23:45.228Z,101703.59
2022-10-15T20:26:14.211Z,101687.00
2022-10-15T20:28:42.890Z,101679.09
2022-10-15T20:31:20.371Z,101676.56
2022-10-15T20:33:48.768Z,101658.25
2022-10-15T20:36:21.145Z,101659.47
2022-10-15T20:38:50.841Z,101658.91
2022-10-15T20:41:18.231Z,101658.78
2022-10-15T20:43:47.219Z,101643.25
2022-10-15T20:46:19.766Z,101663.50
2022-10-15T20:48:46.950Z,101662.53
2022-10-15T20:51:17.657Z,101664.31
2022-10-15T20:53:45.650Z,101660.13
2022-10-15T20:56:12.653Z,101658.34
2022-10-15T20:58:39.416Z,101654.94
2022-10-15T21:01:07.846Z,101655.75
2022-10-15T21:03:34.769Z,101658.59
2022-10-15T21:06:01.621Z,101665.56
2022-10-15T21:08:28.394Z,101669.13
2022-10-15T21:11:04.799Z,101674.50
2022-10-15T21:13:31.747Z,101681.50
2022-10-15T21:16:04.095Z,101682.47
2022-10-15T21:18:31.397Z,101688.53
2022-10-15T21:21:06.396Z,101693.84
2022-10-15T21:23:33.730Z,101698.25
2022-10-15T21:26:05.277Z,101694.88
2022-10-15T21:28:33.353Z,101703.00
2022-10-15T21:31:07.425Z,101705.72
2022-10-15T21:33:35.953Z,101717.97
2022-10-15T21:36:21.567Z,101735.53
2022-10-15T21:39:00.375Z,101739.88
2022-10-15T21:41:29.238Z,101752.16
2022-10-15T21:43:56.927Z,101754.53
2022-10-15T21:46:24.476Z,101756.47
2022-10-15T21:48:52.386Z,101755.59
2022-10-15T21:51:21.939Z,101756.34
2022-10-15T21:53:48.829Z,101765.94
2022-10-15T21:56:16.391Z,101761.56
2022-10-15T21:58:44.103Z,101765.13
2022-10-15T22:01:24.042Z,101767.00
2022-10-15T22:03:52.560Z,101766.94
2022-10-15T22:06:20.703Z,101765.19
2022-10-15T22:08:47.733Z,101768.00
2022-10-15T22:11:18.939Z,101768.94
2022-10-15T22:13:48.103Z,101781.91
2022-10-15T22:16:16.164Z,101781.00
2022-10-15T22:18:43.558Z,101786.09
2022-10-15T22:21:15.733Z,101772.97
2022-10-15T22:23:56.946Z,101771.22
2022-10-15T22:26:26.562Z,101774.84
2022-10-15T22:28:54.607Z,101771.81
2022-10-15T22:31:22.589Z,101766.88
2022-10-15T22:33:49.368Z,101742.94
2022-10-15T22:36:19.125Z,101713.53
2022-10-15T22:38:47.957Z,101674.53
2022-10-15T22:41:15.769Z,101634.31
2022-10-15T22:43:42.778Z,101607.94
2022-10-15T22:46:10.229Z,101580.53
2022-10-15T22:48:39.188Z,101550.44
2022-10-15T22:51:08.929Z,101536.38
2022-10-15T22:53:35.736Z,101512.59
2022-10-15T22:56:08.132Z,101490.59
2022-10-15T22:58:35.340Z,101474.75
2022-10-15T23:01:13.828Z,101462.50
2022-10-15T23:03:43.225Z,101445.59
2022-10-15T23:06:10.857Z,101449.72
2022-10-15T23:08:37.763Z,101432.94
2022-10-15T23:11:16.785Z,101412.38
2022-10-15T23:13:45.109Z,101408.34
2022-10-15T23:16:21.629Z,101402.06
2022-10-15T23:18:53.542Z,101383.84
2022-10-15T23:21:42.502Z,101378.47
2022-10-15T23:24:09.663Z,101376.81
2022-10-15T23:26:37.562Z,101369.75
2022-10-15T23:29:05.917Z,101364.69
2022-10-15T23:31:34.574Z,101359.66
2022-10-15T23:34:02.564Z,101366.47
2022-10-15T23:36:30.280Z,101360.50
2022-10-15T23:39:02.125Z,101360.56
2022-10-15T23:41:30.223Z,101352.97
2022-10-15T23:43:57.177Z,101361.84
2022-10-15T23:46:24.572Z,101374.88
2022-10-15T23:48:51.437Z,101361.78
2022-10-15T23:51:25.535Z,101369.41
2022-10-15T23:53:54.237Z,101370.19
2022-10-15T23:56:22.482Z,101367.56
2022-10-15T23:58:50.752Z,101376.13
